Time;durP1;ratioP1;P1;durP2;ratioP2;P2;SDS_P1;SDS_P2;PMS_P1;PMS_P2;Temp;Humidity;BMP_temperature;BMP_pressure;BME280_temperature;BME280_humidity;BME280_pressure;Samples;Min_cycle;Max_cycle;Signal;HPM_P1;HPM_P2
2022/05/05 00:00:01;;;;;;;0.70;0.70;;;;;;;0.02;68.93;99641.53;4934519;29;20572;-84
2022/05/05 00:02:31;;;;;;;0.50;0.50;;;;;;;-0.10;69.33;99646.34;4918288;29;20107;-84
2022/05/05 00:04:58;;;;;;;0.60;0.60;;;;;;;-0.16;69.58;99648.78;4917466;29;20055;-84
2022/05/05 00:07:25;;;;;;;0.60;0.60;;;;;;;-0.25;69.82;99645.28;4934820;29;20451;-82
2022/05/05 00:09:53;;;;;;;0.90;0.90;;;;;;;-0.26;70.23;99654.22;4918364;29;20105;-84
2022/05/05 00:15:07;;;;;;;0.80;0.80;;;;;;;-0.25;70.32;99650.59;4933923;29;20052;-83
2022/05/05 00:17:34;;;;;;;0.65;0.65;;;;;;;-0.28;70.38;99662.34;4944611;29;20051;-83
2022/05/05 00:20:02;;;;;;;0.55;0.55;;;;;;;-0.30;70.71;99663.50;4945591;29;20107;-84
2022/05/05 00:22:29;;;;;;;0.52;0.52;;;;;;;-0.26;70.56;99665.66;4945720;29;20072;-82
2022/05/05 00:24:56;;;;;;;0.68;0.68;;;;;;;-0.22;70.40;99667.00;4917267;29;20052;-83
2022/05/05 00:27:23;;;;;;;0.60;0.60;;;;;;;-0.30;70.34;99668.81;4934650;29;20494;-83
2022/05/05 00:29:51;;;;;;;0.60;0.60;;;;;;;-0.35;70.50;99666.63;4917927;29;20047;-84
2022/05/05 00:32:19;;;;;;;0.50;0.50;;;;;;;-0.40;70.45;99676.88;4934792;29;20066;-83
2022/05/05 00:34:46;;;;;;;0.70;0.70;;;;;;;-0.44;70.87;99672.84;4949327;29;20048;-83
2022/05/05 00:37:13;;;;;;;0.70;0.70;;;;;;;-0.37;70.77;99679.19;4934324;29;20083;-83
2022/05/05 00:39:40;;;;;;;0.80;0.80;;;;;;;-0.36;70.54;99686.16;4917215;29;20454;-84
2022/05/05 00:42:11;;;;;;;0.70;0.70;;;;;;;-0.41;70.71;99687.63;4917319;29;20056;-83
2022/05/05 00:44:39;;;;;;;0.77;0.77;;;;;;;-0.46;70.54;99686.28;4934374;29;20053;-82
2022/05/05 00:47:06;;;;;;;0.60;0.60;;;;;;;-0.53;70.79;99690.56;4933939;29;20060;-84
2022/05/05 00:49:33;;;;;;;0.70;0.70;;;;;;;-0.60;70.86;99684.19;4917533;29;20071;-83
2022/05/05 00:52:00;;;;;;;0.77;0.77;;;;;;;-0.59;71.04;99696.47;4933811;29;20052;-84
2022/05/05 00:54:27;;;;;;;0.80;0.80;;;;;;;-0.55;71.00;99697.81;4901381;29;20078;-82
2022/05/05 00:56:54;;;;;;;0.55;0.55;;;;;;;-0.56;71.03;99698.78;4917008;29;20059;-84
2022/05/05 00:59:22;;;;;;;0.65;0.65;;;;;;;-0.60;70.92;99699.28;4917118;29;20111;-84
2022/05/05 01:01:49;;;;;;;0.50;0.50;;;;;;;-0.66;71.15;99701.56;4917470;29;20059;-83
2022/05/05 01:04:17;;;;;;;0.65;0.65;;;;;;;-0.56;70.90;99705.91;4934304;29;20044;-83
2022/05/05 01:06:44;;;;;;;0.80;0.80;;;;;;;-0.49;70.26;99702.50;4934037;29;20075;-84
2022/05/05 01:09:11;;;;;;;0.50;0.50;;;;;;;-0.50;69.99;99714.09;4916887;29;20475;-83
2022/05/05 01:11:38;;;;;;;0.50;0.50;;;;;;;-0.55;70.03;99713.72;4917169;29;20048;-83
2022/05/05 01:14:05;;;;;;;0.60;0.60;;;;;;;-0.62;70.18;99717.16;4934083;29;20055;-85
2022/05/05 01:16:33;;;;;;;0.60;0.60;;;;;;;-0.68;70.49;99718.63;4917492;29;20059;-83
2022/05/05 01:19:00;;;;;;;0.70;0.70;;;;;;;-0.76;70.66;99723.84;4917111;29;20129;-83
2022/05/05 01:21:27;;;;;;;0.77;0.77;;;;;;;-0.80;70.97;99722.50;4916966;29;20547;-82
2022/05/05 01:23:54;;;;;;;0.40;0.40;;;;;;;-0.76;71.15;99726.47;4935298;29;20052;-84
2022/05/05 01:29:09;;;;;;;0.60;0.60;;;;;;;-0.77;70.57;99725.66;4926156;29;20062;-83
2022/05/05 01:31:36;;;;;;;0.63;0.63;;;;;;;-0.81;70.49;99718.16;4923364;29;20395;-84
2022/05/05 01:34:03;;;;;;;0.77;0.77;;;;;;;-0.84;70.78;99740.50;4940058;29;20534;-83
2022/05/05 01:36:31;;;;;;;0.60;0.60;;;;;;;-0.92;71.19;99733.31;4940463;29;20455;-83
2022/05/05 01:38:58;;;;;;;0.68;0.68;;;;;;;-0.84;70.96;99739.69;4923294;29;20055;-83
2022/05/05 01:41:25;;;;;;;0.50;0.50;;;;;;;-0.80;70.89;99741.03;4923430;29;20052;-83
2022/05/05 01:43:52;;;;;;;0.70;0.70;;;;;;;-0.78;70.78;99753.16;4939818;29;20574;-84
2022/05/05 01:46:20;;;;;;;0.60;0.60;;;;;;;-0.90;71.12;99760.50;4939819;29;20075;-83
2022/05/05 01:48:47;;;;;;;0.70;0.70;;;;;;;-1.06;71.69;99749.78;4940189;29;20055;-83
2022/05/05 01:51:14;;;;;;;0.80;0.80;;;;;;;-1.07;72.25;99761.34;4939712;29;20060;-82
2022/05/05 01:53:41;;;;;;;0.60;0.60;;;;;;;-1.00;71.84;99773.00;4939741;29;20419;-84
2022/05/05 01:56:13;;;;;;;0.70;0.70;;;;;;;-1.14;71.86;99758.47;4939512;29;20051;-82
2022/05/05 01:58:44;;;;;;;0.63;0.63;;;;;;;-0.94;71.91;99767.13;4940121;29;20090;-82
2022/05/05 02:01:13;;;;;;;0.60;0.60;;;;;;;-0.80;71.34;99778.16;4939844;29;20058;-84
2022/05/05 02:03:40;;;;;;;0.50;0.50;;;;;;;-0.76;70.85;99776.84;4939864;29;20079;-83
2022/05/05 02:06:08;;;;;;;0.63;0.63;;;;;;;-0.75;70.83;99774.06;4939458;29;20066;-83
2022/05/05 02:08:38;;;;;;;0.80;0.80;;;;;;;-0.84;70.95;99771.47;4938803;29;20052;-83
2022/05/05 02:11:06;;;;;;;0.70;0.70;;;;;;;-0.75;70.65;99782.00;4939529;29;20103;-83
2022/05/05 02:13:33;;;;;;;0.60;0.60;;;;;;;-0.72;70.62;99786.16;4940002;29;20055;-83
2022/05/05 02:16:00;;;;;;;0.60;0.60;;;;;;;-0.74;70.74;99780.19;4939390;29;20050;-83
2022/05/05 02:18:27;;;;;;;0.60;0.60;;;;;;;-0.64;70.53;99788.88;4939558;29;20099;-82
2022/05/05 02:20:55;;;;;;;0.70;0.70;;;;;;;-0.65;70.50;99789.88;4939968;29;20048;-84
2022/05/05 02:23:23;;;;;;;0.60;0.60;;;;;;;-0.68;70.41;99801.63;4923275;29;20106;-83
2022/05/05 02:25:50;;;;;;;0.68;0.68;;;;;;;-0.67;70.34;99797.16;4940090;29;20096;-84
2022/05/05 02:28:17;;;;;;;0.80;0.80;;;;;;;-0.65;70.14;99800.47;4950107;29;20055;-84
2022/05/05 02:30:45;;;;;;;0.60;0.60;;;;;;;-0.62;70.19;99802.81;4951815;29;20146;-82
2022/05/05 02:33:12;;;;;;;0.70;0.70;;;;;;;-0.55;70.07;99806.53;4945784;29;20059;-84
2022/05/05 02:35:39;;;;;;;0.80;0.80;;;;;;;-0.51;69.99;99807.88;4939688;29;20463;-83
2022/05/05 02:40:53;;;;;;;0.68;0.68;;;;;;;-0.39;69.69;99818.25;4936429;29;20562;-83
2022/05/05 02:43:20;;;;;;;0.70;0.70;;;;;;;-0.36;69.58;99818.78;4936527;29;20051;-84
2022/05/05 02:45:47;;;;;;;0.70;0.70;;;;;;;-0.33;69.15;99820.28;4936226;29;20066;-84
2022/05/05 02:48:15;;;;;;;0.85;0.85;;;;;;;-0.34;69.35;99826.59;4919377;29;20218;-83
2022/05/05 02:50:42;;;;;;;0.73;0.73;;;;;;;-0.31;69.00;99823.63;4936384;29;20063;-85
2022/05/05 02:55:54;;;;;;;0.80;0.80;;;;;;;-0.23;68.88;99839.59;4935959;29;20054;-84
2022/05/05 02:58:21;;;;;;;0.90;0.90;;;;;;;-0.18;68.68;99836.47;4936151;29;20103;-84
2022/05/05 03:00:49;;;;;;;0.90;0.90;;;;;;;-0.14;68.58;99848.47;4936019;29;20047;-84
2022/05/05 03:03:16;;;;;;;0.70;0.70;;;;;;;-0.11;68.24;99841.00;4919007;29;20052;-84
2022/05/05 03:05:44;;;;;;;0.75;0.75;;;;;;;-0.08;68.25;99846.00;4936126;29;20103;-83
2022/05/05 03:08:11;;;;;;;0.73;0.73;;;;;;;-0.08;68.10;99838.03;4918709;29;20059;-84
2022/05/05 03:10:38;;;;;;;0.60;0.60;;;;;;;0.03;67.75;99849.41;4936394;29;20419;-84
2022/05/05 03:13:06;;;;;;;0.73;0.73;;;;;;;0.08;67.57;99847.94;4935966;29;20060;-83
2022/05/05 03:15:33;;;;;;;0.70;0.70;;;;;;;0.13;67.43;99850.13;4936705;29;20201;-84
2022/05/05 03:18:00;;;;;;;0.70;0.70;;;;;;;0.15;67.15;99849.00;4935543;29;20530;-83
2022/05/05 03:20:29;;;;;;;0.60;0.60;;;;;;;0.19;67.08;99858.28;4935855;29;20074;-84
2022/05/05 03:22:56;;;;;;;0.70;0.70;;;;;;;0.26;66.74;99860.34;4936159;29;20052;-84
2022/05/05 03:25:23;;;;;;;0.68;0.68;;;;;;;0.29;66.82;99863.50;4935780;29;20054;-83
2022/05/05 03:27:50;;;;;;;0.68;0.68;;;;;;;0.29;66.44;99862.66;4918439;29;20055;-84
2022/05/05 03:30:17;;;;;;;0.70;0.70;;;;;;;0.38;66.56;99872.34;4935530;29;20404;-84
2022/05/05 03:32:44;;;;;;;0.80;0.80;;;;;;;0.41;66.51;99870.22;4935469;29;20054;-84
2022/05/05 03:35:11;;;;;;;0.80;0.80;;;;;;;0.52;66.33;99876.25;4935139;29;20048;-84
2022/05/05 03:37:40;;;;;;;0.73;0.73;;;;;;;0.58;66.09;99879.09;4935453;29;20264;-84
2022/05/05 03:40:07;;;;;;;0.55;0.55;;;;;;;0.62;65.68;99880.44;4935273;29;20047;-84
2022/05/05 03:42:34;;;;;;;0.60;0.60;;;;;;;0.59;65.22;99872.78;4918601;29;20047;-83
2022/05/05 03:45:02;;;;;;;0.73;0.73;;;;;;;0.69;65.00;99882.47;4935407;29;20147;-84
2022/05/05 03:47:30;;;;;;;0.90;0.90;;;;;;;0.78;64.81;99886.81;4918730;29;20146;-84
2022/05/05 03:49:57;;;;;;;0.70;0.70;;;;;;;0.83;64.39;99890.66;4935303;29;20047;-84
2022/05/05 03:52:24;;;;;;;0.63;0.63;;;;;;;0.92;63.79;99888.88;4918650;29;20056;-83
2022/05/05 03:54:51;;;;;;;0.82;0.82;;;;;;;1.10;63.65;99894.09;4936594;29;20051;-84
2022/05/05 03:57:18;;;;;;;0.70;0.70;;;;;;;1.19;63.36;99894.91;4936578;29;20400;-83
2022/05/05 03:59:45;;;;;;;0.68;0.68;;;;;;;1.32;63.07;99899.78;4936287;29;20071;-86
2022/05/05 04:02:12;;;;;;;0.90;0.90;;;;;;;1.55;62.72;99900.84;4919284;29;20063;-84
2022/05/05 04:04:40;;;;;;;0.80;0.80;;;;;;;1.67;62.05;99904.84;4934880;29;20052;-87
2022/05/05 04:07:07;;;;;;;0.80;0.80;;;;;;;1.64;60.69;99905.16;4917575;29;20510;-83
2022/05/05 04:09:34;;;;;;;0.80;0.80;;;;;;;1.64;60.65;99921.13;4917506;29;20126;-84
2022/05/05 04:12:01;;;;;;;0.80;0.80;;;;;;;1.66;60.24;99918.31;4935410;29;20047;-83
2022/05/05 04:14:29;;;;;;;0.70;0.70;;;;;;;1.62;60.11;99917.81;4918999;29;20060;-85
2022/05/05 04:16:56;;;;;;;0.80;0.80;;;;;;;1.59;59.82;99912.78;4934910;29;20046;-86
2022/05/05 04:19:23;;;;;;;0.75;0.75;;;;;;;1.65;59.93;99922.81;4934818;29;20256;-82
2022/05/05 04:21:50;;;;;;;0.80;0.80;;;;;;;1.80;59.89;99933.63;4935957;29;20074;-84
2022/05/05 04:24:17;;;;;;;0.88;0.88;;;;;;;1.92;59.87;99932.31;4918907;29;20078;-85
2022/05/05 04:26:45;;;;;;;0.80;0.80;;;;;;;1.88;59.04;99932.81;4935359;29;20047;-84
2022/05/05 04:29:13;;;;;;;0.90;0.90;;;;;;;1.93;58.79;99944.63;4917752;29;20533;-84
2022/05/05 04:31:40;;;;;;;0.70;0.70;;;;;;;1.97;58.64;99937.13;4917764;29;20055;-86
2022/05/05 04:34:08;;;;;;;0.90;0.90;;;;;;;2.14;58.43;99946.78;4901817;29;20047;-85
2022/05/05 04:36:36;;;;;;;0.70;0.70;;;;;;;2.17;58.37;99938.44;4919137;29;20059;-84
2022/05/05 04:39:04;;;;;;;0.75;0.75;;;;;;;2.40;57.74;99943.09;4917145;29;20051;-84
2022/05/05 04:41:33;;;;;;;0.73;0.73;;;;;;;2.38;56.93;99945.06;4935332;29;20052;-84
2022/05/05 04:44:00;;;;;;;0.75;0.75;;;;;;;2.38;56.72;99945.06;4934703;29;20055;-84
2022/05/05 04:46:27;;;;;;;0.70;0.70;;;;;;;2.59;56.47;99940.06;4918054;29;20558;-85
2022/05/05 04:48:55;;;;;;;0.70;0.70;;;;;;;2.82;55.69;99950.00;4916812;29;20102;-84
2022/05/05 04:51:22;;;;;;;0.90;0.90;;;;;;;2.75;54.21;99943.69;4934480;29;20143;-85
2022/05/05 04:53:50;;;;;;;0.82;0.82;;;;;;;2.77;53.84;99953.19;4935947;29;20491;-84
2022/05/05 04:56:17;;;;;;;0.70;0.70;;;;;;;2.74;53.33;99950.03;4934597;29;20048;-85
2022/05/05 04:58:44;;;;;;;0.70;0.70;;;;;;;2.63;53.24;99948.53;4934804;29;20063;-85
2022/05/05 05:01:16;;;;;;;0.68;0.68;;;;;;;2.67;52.90;99949.88;4932162;29;20052;-84
2022/05/05 05:03:43;;;;;;;0.80;0.80;;;;;;;2.73;52.36;99951.00;4934681;29;20051;-84
2022/05/05 05:06:10;;;;;;;0.70;0.70;;;;;;;2.83;52.62;99955.16;4934398;29;20075;-84
2022/05/05 05:08:38;;;;;;;0.80;0.80;;;;;;;3.19;52.43;99959.19;4938596;29;20490;-84
2022/05/05 05:11:06;;;;;;;0.90;0.90;;;;;;;3.48;51.44;99954.06;4934081;29;20055;-85
2022/05/05 05:13:33;;;;;;;0.80;0.80;;;;;;;3.49;49.94;99957.53;4934175;29;20064;-83
2022/05/05 05:16:00;;;;;;;0.80;0.80;;;;;;;3.54;49.96;99968.53;4932438;29;20099;-85
2022/05/05 05:18:27;;;;;;;0.82;0.82;;;;;;;3.58;49.81;99969.03;4933622;29;20118;-84
2022/05/05 05:20:56;;;;;;;0.75;0.75;;;;;;;3.81;50.33;99975.22;4917586;29;20164;-84
2022/05/05 05:23:23;;;;;;;0.80;0.80;;;;;;;4.08;50.09;99978.38;4933976;29;20052;-84
2022/05/05 05:25:50;;;;;;;0.70;0.70;;;;;;;3.97;49.01;99962.75;4934145;29;20058;-84
2022/05/05 05:28:17;;;;;;;0.80;0.80;;;;;;;3.85;49.45;99970.38;4917007;29;20083;-85
2022/05/05 05:30:45;;;;;;;0.60;0.60;;;;;;;3.96;48.75;99982.47;4933896;29;20051;-84
2022/05/05 05:33:12;;;;;;;0.90;0.90;;;;;;;4.04;48.92;99979.72;4901783;29;20051;-83
2022/05/05 05:35:39;;;;;;;0.80;0.80;;;;;;;4.08;47.85;99984.53;4917232;29;20430;-85
2022/05/05 05:38:08;;;;;;;0.70;0.70;;;;;;;4.06;47.77;99975.88;4933842;29;20062;-84
2022/05/05 05:40:35;;;;;;;0.75;0.75;;;;;;;4.43;47.94;99990.28;4916976;29;20400;-84
2022/05/05 05:43:03;;;;;;;0.77;0.77;;;;;;;4.55;45.95;99991.50;4933674;29;20135;-84
2022/05/05 05:45:30;;;;;;;0.82;0.82;;;;;;;4.61;45.57;99989.97;4933420;29;20051;-85
2022/05/05 05:47:57;;;;;;;0.73;0.73;;;;;;;4.74;44.93;99994.69;4933568;29;20533;-86
2022/05/05 05:50:24;;;;;;;0.80;0.80;;;;;;;4.92;44.69;99978.28;4934017;29;20103;-84
2022/05/05 05:52:51;;;;;;;0.70;0.70;;;;;;;5.02;43.18;99978.81;4935073;29;20054;-85
2022/05/05 05:55:18;;;;;;;0.80;0.80;;;;;;;4.90;42.76;99991.81;4934423;29;20048;-85
2022/05/05 05:57:46;;;;;;;0.80;0.80;;;;;;;5.01;42.93;99993.19;4934089;29;20398;-85
2022/05/05 06:00:13;;;;;;;0.90;0.90;;;;;;;4.99;43.45;99987.22;4933469;29;20044;-85
2022/05/05 06:05:27;;;;;;;0.70;0.70;;;;;;;4.63;43.02;99987.09;4936322;29;20055;-86
2022/05/05 06:08:01;;;;;;;0.88;0.88;;;;;;;4.53;42.90;99996.22;4952163;29;20040;-85
2022/05/05 06:10:28;;;;;;;0.90;0.90;;;;;;;4.60;42.38;100000.81;4919482;29;20052;-85
2022/05/05 06:12:55;;;;;;;0.60;0.60;;;;;;;4.55;41.84;100002.19;4934326;29;20052;-84
2022/05/05 06:15:23;;;;;;;0.63;0.63;;;;;;;4.41;42.30;100012.88;4936982;29;20063;-84
2022/05/05 06:17:51;;;;;;;0.80;0.80;;;;;;;4.50;42.14;100017.09;4920142;29;20056;-84
2022/05/05 06:20:18;;;;;;;0.70;0.70;;;;;;;4.57;41.90;100010.03;4919874;29;20054;-85
2022/05/05 06:22:45;;;;;;;0.70;0.70;;;;;;;4.76;41.77;100016.69;4904790;29;20052;-84
2022/05/05 06:25:13;;;;;;;0.80;0.80;;;;;;;4.89;41.57;100016.09;4937015;29;20369;-86
2022/05/05 06:27:40;;;;;;;0.80;0.80;;;;;;;5.23;41.57;100018.22;4933826;29;20052;-85
2022/05/05 06:30:14;;;;;;;0.80;0.80;;;;;;;5.71;39.82;100015.13;4953569;29;20111;-85
2022/05/05 06:32:42;;;;;;;0.85;0.85;;;;;;;5.98;38.63;100011.75;4937722;29;20058;-84
2022/05/05 06:35:10;;;;;;;0.80;0.80;;;;;;;6.15;38.52;100024.91;4920534;29;20223;-84
2022/05/05 06:37:37;;;;;;;0.80;0.80;;;;;;;5.83;38.35;100019.78;4939595;29;20048;-84
2022/05/05 06:40:05;;;;;;;0.80;0.80;;;;;;;5.76;39.12;100010.03;4937700;29;20426;-83
2022/05/05 06:42:32;;;;;;;0.80;0.80;;;;;;;5.78;38.17;100022.22;4920383;29;20071;-85
2022/05/05 06:45:00;;;;;;;0.90;0.90;;;;;;;6.05;37.73;100019.84;4920243;29;20103;-85
2022/05/05 06:47:29;;;;;;;0.80;0.80;;;;;;;6.15;36.35;100028.41;4936624;29;20048;-85
2022/05/05 06:49:56;;;;;;;0.90;0.90;;;;;;;6.55;36.08;100022.59;4920225;29;20079;-85
2022/05/05 06:52:23;;;;;;;0.80;0.80;;;;;;;7.02;35.35;100031.84;4936728;29;20051;-84
2022/05/05 06:55:05;;;;;;;0.90;0.90;;;;;;;6.89;33.95;100030.72;4905968;29;20062;-84
2022/05/05 06:57:33;;;;;;;0.60;0.60;;;;;;;6.17;34.80;100031.72;4904221;29;20044;-84
2022/05/05 07:00:00;;;;;;;0.90;0.90;;;;;;;6.03;35.52;100036.13;4936237;29;20051;-85
2022/05/05 07:02:28;;;;;;;0.77;0.77;;;;;;;6.28;34.99;100035.78;4936528;29;20051;-85
2022/05/05 07:07:41;;;;;;;0.70;0.70;;;;;;;6.01;35.12;100035.47;4924547;29;20052;-86
2022/05/05 07:12:54;;;;;;;0.70;0.70;;;;;;;5.76;36.58;100034.97;4946431;29;20074;-83
2022/05/05 07:15:21;;;;;;;0.70;0.70;;;;;;;5.43;35.59;100024.66;4947005;29;20503;-84
2022/05/05 07:17:48;;;;;;;0.80;0.80;;;;;;;5.46;35.66;100038.69;4925983;29;20056;-85
2022/05/05 07:20:16;;;;;;;0.80;0.80;;;;;;;5.29;35.57;100036.22;4943291;29;20090;-86
2022/05/05 07:22:43;;;;;;;0.75;0.75;;;;;;;5.44;35.59;100036.19;4937346;29;20048;-84
2022/05/05 07:25:10;;;;;;;0.80;0.80;;;;;;;5.49;34.66;100028.44;4935681;29;20408;-85
2022/05/05 07:27:38;;;;;;;0.80;0.80;;;;;;;5.84;34.63;100036.69;4919282;29;20075;-85
2022/05/05 07:30:06;;;;;;;0.90;0.90;;;;;;;6.15;33.24;100033.75;4936244;29;20167;-85
2022/05/05 07:32:36;;;;;;;0.80;0.80;;;;;;;6.23;33.30;100043.56;4936138;29;20522;-83
2022/05/05 07:35:03;;;;;;;0.90;0.90;;;;;;;6.40;33.19;100038.75;4918712;29;20056;-85
2022/05/05 07:37:32;;;;;;;0.90;0.90;;;;;;;6.81;34.38;100040.75;4936422;29;20135;-85
2022/05/05 07:39:59;;;;;;;0.88;0.88;;;;;;;7.45;33.68;100042.41;4903463;29;20466;-86
2022/05/05 07:42:26;;;;;;;0.90;0.90;;;;;;;7.62;32.18;100027.59;4936298;29;20051;-85
2022/05/05 07:44:53;;;;;;;0.82;0.82;;;;;;;7.75;31.46;100051.84;4936105;29;20052;-84
2022/05/05 07:47:21;;;;;;;0.60;0.60;;;;;;;6.86;31.97;100047.22;4936231;29;20519;-84
2022/05/05 07:49:48;;;;;;;1.00;1.00;;;;;;;6.91;31.68;100046.59;4935700;29;20375;-84
2022/05/05 07:52:15;;;;;;;0.80;0.80;;;;;;;6.94;31.98;100051.59;4935441;29;20047;-84
2022/05/05 07:54:44;;;;;;;0.90;0.90;;;;;;;7.37;31.65;100044.22;4935842;29;20415;-82
2022/05/05 07:57:13;;;;;;;0.70;0.70;;;;;;;7.94;31.72;100038.69;4918240;29;20143;-85
2022/05/05 07:59:44;;;;;;;1.00;1.00;;;;;;;8.01;31.09;100034.97;4935321;29;20060;-84
2022/05/05 08:02:15;;;;;;;1.00;1.00;;;;;;;7.64;31.32;100033.59;4936038;29;20051;-86
2022/05/05 08:04:43;;;;;;;1.00;1.00;;;;;;;7.63;32.08;100053.44;4938094;29;20103;-85
2022/05/05 08:07:11;;;;;;;0.95;0.95;;;;;;;7.80;30.94;100043.19;4936393;29;20075;-85
2022/05/05 08:09:39;;;;;;;0.80;0.80;;;;;;;8.23;31.41;100043.72;4918830;29;20055;-86
2022/05/05 08:12:25;;;;;;;0.85;0.85;;;;;;;8.49;29.35;100050.22;4935185;29;20055;-85
2022/05/05 08:14:52;;;;;;;0.90;0.90;;;;;;;8.23;29.51;100038.34;4936767;29;20071;-84
2022/05/05 08:17:19;;;;;;;0.90;0.90;;;;;;;8.46;29.93;100027.25;4935579;29;20090;-85
2022/05/05 08:19:47;;;;;;;0.60;0.60;;;;;;;8.80;30.00;100038.00;4935400;29;20060;-86
2022/05/05 08:22:14;;;;;;;0.90;0.90;;;;;;;9.55;29.22;100038.50;4934994;29;20056;-85
2022/05/05 08:30:14;;;;;;;0.90;0.90;;;;;;;10.20;26.67;100054.56;4917573;29;20051;-84
2022/05/05 08:32:41;;;;;;;1.00;1.00;;;;;;;10.32;27.37;100042.09;4935005;29;20062;-84
2022/05/05 08:35:08;;;;;;;0.90;0.90;;;;;;;10.59;26.30;100052.72;4934718;29;20086;-85
2022/05/05 08:37:35;;;;;;;0.90;0.90;;;;;;;10.91;26.05;100045.38;4917057;29;20052;-85
2022/05/05 08:40:03;;;;;;;0.90;0.90;;;;;;;11.03;25.11;100058.97;4934710;29;20059;-86
2022/05/05 08:42:30;;;;;;;0.90;0.90;;;;;;;11.26;24.39;100053.75;4917685;29;20372;-85
2022/05/05 08:44:59;;;;;;;0.90;0.90;;;;;;;11.54;24.39;100052.44;4917483;29;20051;-85
2022/05/05 08:47:27;;;;;;;0.90;0.90;;;;;;;11.57;24.06;100038.47;4934111;29;20093;-85
2022/05/05 08:49:58;;;;;;;0.90;0.90;;;;;;;10.52;24.69;100046.53;4918082;29;20079;-84
2022/05/05 08:52:41;;;;;;;0.80;0.80;;;;;;;10.72;25.00;100040.97;4917584;29;20423;-86
2022/05/05 08:55:13;;;;;;;0.90;0.90;;;;;;;11.69;25.20;100052.06;4916901;29;20058;-83
2022/05/05 08:57:41;;;;;;;0.90;0.90;;;;;;;12.30;24.34;100042.13;4916786;29;20147;-83
2022/05/05 09:00:10;;;;;;;0.80;0.80;;;;;;;12.43;23.97;100025.72;4933266;29;20164;-84
2022/05/05 09:02:38;;;;;;;0.90;0.90;;;;;;;12.66;23.63;100024.94;4934021;29;20039;-84
2022/05/05 09:05:07;;;;;;;0.90;0.90;;;;;;;12.62;23.67;100037.28;4916561;29;20110;-85
2022/05/05 09:07:50;;;;;;;0.90;0.90;;;;;;;12.43;23.06;100035.69;4933994;29;20047;-82
2022/05/05 09:10:21;;;;;;;0.90;0.90;;;;;;;12.10;22.84;100032.44;4916066;29;20070;-85
2022/05/05 09:13:01;;;;;;;1.00;1.00;;;;;;;11.99;24.08;100030.47;4916885;29;20055;-85
2022/05/05 09:15:33;;;;;;;1.00;1.00;;;;;;;12.72;22.76;100025.88;4933521;29;20071;-84
2022/05/05 09:18:12;;;;;;;0.90;0.90;;;;;;;12.75;23.11;100036.22;4933395;29;20089;-85
2022/05/05 09:20:40;;;;;;;0.90;0.90;;;;;;;13.18;22.68;100037.78;4934953;29;20063;-85
2022/05/05 09:23:31;;;;;;;1.00;1.00;;;;;;;13.62;22.53;100027.38;4934085;29;20475;-84
2022/05/05 09:26:03;;;;;;;1.00;1.00;;;;;;;13.84;21.84;100022.13;4933824;29;20134;-82
2022/05/05 09:28:32;;;;;;;0.90;0.90;;;;;;;14.06;21.57;100027.72;4930695;29;20456;-85
2022/05/05 09:31:09;;;;;;;0.85;0.85;;;;;;;13.90;22.62;100020.34;4933099;29;20047;-83
2022/05/05 09:33:39;;;;;;;0.90;0.90;;;;;;;13.67;22.04;100024.75;4933656;29;20086;-84
2022/05/05 09:36:09;;;;;;;0.90;0.90;;;;;;;13.63;21.87;100031.75;4933131;29;20062;-83
2022/05/05 09:38:56;;;;;;;1.00;1.00;;;;;;;13.89;21.31;100038.50;4916346;29;20051;-85
2022/05/05 09:41:32;;;;;;;0.95;0.95;;;;;;;14.52;21.14;100048.38;4916593;29;20051;-83
2022/05/05 09:44:53;;;;;;;1.00;1.00;;;;;;;15.52;20.88;100043.16;4916411;29;20106;-83
2022/05/05 09:47:59;;;;;;;0.90;0.90;;;;;;;15.51;19.57;100033.31;4802361;29;20063;-83
2022/05/05 10:00:30;;;;;;;0.90;0.90;;;;;;;14.19;20.15;100023.88;4617160;31;20068;-86
2022/05/05 10:05:51;;;;;;;0.90;0.90;;;;;;;15.04;21.05;100012.03;4613686;31;20540;-85
2022/05/05 10:08:23;;;;;;;1.00;1.00;;;;;;;16.27;19.12;100023.63;4599740;31;20078;-84
2022/05/05 10:10:49;;;;;;;0.90;0.90;;;;;;;16.82;19.19;100025.22;4599560;31;20403;-85
2022/05/05 10:13:20;;;;;;;1.00;1.00;;;;;;;17.29;18.30;100014.38;4613032;31;20123;-84
2022/05/05 10:15:49;;;;;;;1.00;1.00;;;;;;;15.93;19.29;100012.94;4599470;31;20060;-85
2022/05/05 10:18:17;;;;;;;0.90;0.90;;;;;;;15.97;19.75;100030.38;4632163;30;20054;-84
2022/05/05 10:20:43;;;;;;;0.93;0.93;;;;;;;16.42;19.04;100030.03;4663749;30;20609;-84
2022/05/05 10:23:30;;;;;;;0.90;0.90;;;;;;;16.04;19.22;100023.66;4661466;30;20066;-84
2022/05/05 10:25:55;;;;;;;0.90;0.90;;;;;;;16.50;19.35;100020.56;4732956;30;20052;-84
2022/05/05 10:28:42;;;;;;;0.90;0.90;;;;;;;17.05;18.41;100024.03;4764254;29;20633;-85
2022/05/05 10:31:13;;;;;;;0.90;0.90;;;;;;;16.47;18.42;100027.34;4775457;29;20056;-83
2022/05/05 10:34:02;;;;;;;1.00;1.00;;;;;;;16.32;18.57;100042.75;4819161;29;20053;-83
2022/05/05 10:36:30;;;;;;;0.95;0.95;;;;;;;16.25;18.34;100035.59;4924561;29;20107;-85
2022/05/05 10:38:57;;;;;;;0.90;0.90;;;;;;;15.97;18.62;100020.31;4936362;29;20053;-84
2022/05/05 10:41:31;;;;;;;1.00;1.00;;;;;;;16.54;18.85;100024.44;4919627;29;20409;-83
2022/05/05 10:44:13;;;;;;;0.90;0.90;;;;;;;17.42;17.75;100013.06;4934945;29;20126;-85
2022/05/05 10:46:55;;;;;;;0.90;0.90;;;;;;;17.77;18.16;100008.84;4936457;29;20239;-84
2022/05/05 10:49:42;;;;;;;0.90;0.90;;;;;;;18.26;18.05;100013.13;4936592;29;20052;-84
2022/05/05 10:52:12;;;;;;;1.00;1.00;;;;;;;18.34;17.23;100016.13;4919250;29;20082;-85
2022/05/05 10:54:47;;;;;;;0.90;0.90;;;;;;;18.49;16.53;100017.25;4936476;29;20535;-84
2022/05/05 10:57:26;;;;;;;0.80;0.80;;;;;;;16.92;17.74;100019.03;4936214;29;20055;-85
2022/05/05 11:00:41;;;;;;;1.00;1.00;;;;;;;16.32;18.67;100024.47;4935412;29;20102;-84
2022/05/05 11:03:09;;;;;;;0.90;0.90;;;;;;;16.04;18.59;100025.56;4859066;29;20540;-84
2022/05/05 11:05:38;;;;;;;1.00;1.00;;;;;;;15.94;18.81;100020.81;4859530;29;20155;-83
2022/05/05 11:08:08;;;;;;;1.00;1.00;;;;;;;16.25;18.82;100004.78;4843301;29;20470;-86
2022/05/05 11:10:40;;;;;;;1.00;1.00;;;;;;;17.21;18.11;100016.75;4858320;29;20098;-84
2022/05/05 11:13:28;;;;;;;1.00;1.00;;;;;;;17.87;17.01;100013.53;4859224;29;20553;-85
2022/05/05 11:21:37;;;;;;;0.90;0.90;;;;;;;18.35;17.15;100009.56;4858492;29;20224;-85
2022/05/05 11:24:05;;;;;;;0.85;0.85;;;;;;;18.61;16.79;100026.00;4858055;29;20474;-85
2022/05/05 11:26:33;;;;;;;0.90;0.90;;;;;;;18.59;16.75;100009.84;4857953;29;20621;-85
2022/05/05 11:29:02;;;;;;;0.90;0.90;;;;;;;18.14;17.10;99995.03;4842934;29;20065;-86
2022/05/05 11:31:30;;;;;;;0.90;0.90;;;;;;;19.07;16.73;100009.59;4858258;29;20149;-85
2022/05/05 11:34:00;;;;;;;1.00;1.00;;;;;;;18.94;16.34;100016.44;4858300;29;20053;-85
2022/05/05 11:36:29;;;;;;;0.90;0.90;;;;;;;19.18;16.17;100010.38;4860830;29;20152;-85
2022/05/05 11:38:57;;;;;;;0.80;0.80;;;;;;;19.47;16.05;100010.56;4888695;29;20422;-85
2022/05/05 11:41:26;;;;;;;0.90;0.90;;;;;;;19.78;15.41;100010.50;4937080;29;20086;-87
2022/05/05 11:46:39;;;;;;;0.90;0.90;;;;;;;18.58;16.20;100007.38;4935112;29;20060;-85
2022/05/05 11:49:08;;;;;;;0.90;0.90;;;;;;;18.43;16.37;100010.94;4918008;29;20464;-85
2022/05/05 11:51:36;;;;;;;1.00;1.00;;;;;;;18.60;16.42;100010.66;4935422;29;20051;-84
2022/05/05 11:54:08;;;;;;;0.90;0.90;;;;;;;19.09;16.19;99998.34;4918008;29;20048;-85
2022/05/05 11:56:38;;;;;;;0.90;0.90;;;;;;;19.15;16.43;99994.53;4918199;29;20470;-85
2022/05/05 12:02:15;;;;;;;0.90;0.90;;;;;;;20.86;15.52;100000.41;4920833;29;20506;-85
2022/05/05 12:04:46;;;;;;;0.80;0.80;;;;;;;21.08;14.61;100001.88;4917929;29;20048;-85
2022/05/05 12:07:20;;;;;;;0.90;0.90;;;;;;;21.16;14.79;99993.00;4935047;29;20052;-85
2022/05/05 12:09:48;;;;;;;0.80;0.80;;;;;;;21.18;14.55;99985.31;4918429;29;20051;-85
2022/05/05 12:12:18;;;;;;;0.82;0.82;;;;;;;21.42;14.70;99979.81;4935271;29;20506;-85
2022/05/05 12:14:49;;;;;;;0.80;0.80;;;;;;;20.85;14.77;99995.25;4934971;29;20051;-85
2022/05/05 12:17:33;;;;;;;0.90;0.90;;;;;;;21.14;15.35;99990.56;4934571;29;20138;-84
2022/05/05 12:20:05;;;;;;;0.90;0.90;;;;;;;21.60;14.99;99992.00;4934636;29;20084;-89
2022/05/05 12:22:39;;;;;;;0.80;0.80;;;;;;;22.45;13.94;99993.81;4918647;29;20043;-88
2022/05/05 12:25:15;;;;;;;0.80;0.80;;;;;;;23.00;13.83;99986.88;4917692;29;20055;-89
2022/05/05 12:28:03;;;;;;;0.80;0.80;;;;;;;23.53;13.88;99992.72;4935172;29;20066;-88
2022/05/05 12:30:35;;;;;;;0.70;0.70;;;;;;;23.18;13.77;99999.75;4935029;29;20166;-87
2022/05/05 12:33:03;;;;;;;0.80;0.80;;;;;;;22.27;13.28;100000.16;4923817;29;20464;-87